createdAt,value
2024-02-13T00:02:46.562Z,8.57
2024-02-13T00:07:48.841Z,7.72
2024-02-13T00:12:52.290Z,8.00
2024-02-13T00:17:54.177Z,8.02
2024-02-13T00:22:56.681Z,8.27
2024-02-13T00:27:58.336Z,7.40
2024-02-13T00:33:00.047Z,8.13
2024-02-13T00:38:01.714Z,7.82
2024-02-13T00:43:03.395Z,7.68
2024-02-13T00:48:07.062Z,7.47
2024-02-13T00:53:11.634Z,7.40
2024-02-13T00:58:13.318Z,7.38
2024-02-13T01:03:15.039Z,7.28
2024-02-13T01:08:24.468Z,7.72
2024-02-13T01:13:27.432Z,8.15
2024-02-13T01:18:30.420Z,7.65
2024-02-13T01:23:32.119Z,7.88
2024-02-13T01:28:37.122Z,8.13
2024-02-13T01:33:38.863Z,8.20
2024-02-13T01:38:40.586Z,8.05
2024-02-13T01:43:42.279Z,7.97
2024-02-13T01:48:44.054Z,8.10
2024-02-13T01:53:46.297Z,7.65
2024-02-13T01:58:47.990Z,8.82
2024-02-13T02:03:51.397Z,8.38
2024-02-13T02:08:54.245Z,7.47
2024-02-13T02:13:56.974Z,8.18
2024-02-13T02:18:58.838Z,8.13
2024-02-13T02:24:01.274Z,7.90
2024-02-13T02:29:03.060Z,8.57
2024-02-13T02:34:04.739Z,8.50
2024-02-13T02:39:06.431Z,8.48
2024-02-13T02:44:09.860Z,9.13
2024-02-13T02:49:11.891Z,8.70
2024-02-13T02:54:14.749Z,8.07
2024-02-13T02:59:17.475Z,8.88
2024-02-13T03:04:19.363Z,8.80
2024-02-13T03:09:21.097Z,9.15
2024-02-13T03:14:22.794Z,9.10
2024-02-13T03:19:24.444Z,9.10
2024-02-13T03:24:26.057Z,8.77
2024-02-13T03:29:28.255Z,8.40
2024-02-13T03:34:29.935Z,8.20
2024-02-13T03:39:31.591Z,8.13
2024-02-13T03:44:33.549Z,8.27
2024-02-13T03:49:35.325Z,8.05
2024-02-13T03:54:37.178Z,8.13
2024-02-13T03:59:39.806Z,7.90
2024-02-13T04:04:41.450Z,7.80
2024-02-13T04:09:43.238Z,7.63
2024-02-13T04:14:45.031Z,7.65
2024-02-13T04:19:47.066Z,7.40
2024-02-13T04:24:48.760Z,8.20
2024-02-13T04:29:50.622Z,7.13
2024-02-13T04:34:52.436Z,6.75
2024-02-13T04:39:54.106Z,7.28
2024-02-13T04:44:57.653Z,6.80
2024-02-13T04:50:00.499Z,7.35
2024-02-13T04:55:02.223Z,6.40
2024-02-13T05:00:29.417Z,6.15
2024-02-13T05:05:50.120Z,6.43
2024-02-13T05:10:51.894Z,6.53
2024-02-13T05:15:53.527Z,6.13
2024-02-13T05:20:55.358Z,5.93
2024-02-13T05:25:58.176Z,6.43
2024-02-13T05:30:59.936Z,5.88
2024-02-13T05:36:03.234Z,5.15
2024-02-13T05:41:05.995Z,5.80
2024-02-13T05:46:07.616Z,5.90
2024-02-13T05:51:12.777Z,5.65
2024-02-13T05:56:23.441Z,6.00
2024-02-13T06:01:30.452Z,5.68
2024-02-13T06:06:32.375Z,4.78
2024-02-13T06:11:37.540Z,5.25
2024-02-13T06:16:39.242Z,4.72
2024-02-13T06:21:41.557Z,5.10
2024-02-13T06:26:44.231Z,4.93
2024-02-13T06:31:45.873Z,4.93
2024-02-13T06:36:47.724Z,4.90
2024-02-13T06:41:49.560Z,5.65
2024-02-13T06:46:51.351Z,5.07
2024-02-13T06:51:52.986Z,4.35
2024-02-13T06:56:54.698Z,4.28
2024-02-13T07:01:56.535Z,4.38
2024-02-13T07:07:08.940Z,5.18
2024-02-13T07:12:21.253Z,4.47
2024-02-13T07:17:23.789Z,4.80
2024-02-13T07:22:25.676Z,4.45
2024-02-13T07:27:27.454Z,4.45
2024-02-13T07:32:29.181Z,4.70
2024-02-13T07:37:33.963Z,4.72
2024-02-13T07:42:35.609Z,4.68
2024-02-13T07:47:38.152Z,4.93
2024-02-13T07:52:40.571Z,4.78
2024-02-13T07:57:42.790Z,4.30
2024-02-13T08:02:45.109Z,3.85
2024-02-13T08:07:46.801Z,4.18
2024-02-13T08:12:48.423Z,3.92
2024-02-13T08:17:50.399Z,3.50
2024-02-13T08:22:52.450Z,3.60
2024-02-13T08:27:54.117Z,3.60
2024-02-13T08:32:56.009Z,3.80
2024-02-13T08:37:58.442Z,3.88
2024-02-13T08:43:00.189Z,3.92
2024-02-13T08:48:01.957Z,3.60
2024-02-13T08:53:03.921Z,3.38
2024-02-13T08:58:05.534Z,4.28
2024-02-13T09:03:07.178Z,4.00
2024-02-13T09:08:08.779Z,3.58
2024-02-13T09:13:10.565Z,4.00
2024-02-13T09:18:12.391Z,3.70
2024-02-13T09:23:15.665Z,4.50
2024-02-13T09:28:18.053Z,3.92
2024-02-13T09:33:22.440Z,3.80
2024-02-13T09:38:24.435Z,3.95
2024-02-13T09:43:26.140Z,3.90
2024-02-13T09:48:28.353Z,3.70
2024-02-13T09:53:30.487Z,3.83
2024-02-13T09:58:33.457Z,3.63
2024-02-13T10:03:38.090Z,3.70
2024-02-13T10:08:41.184Z,3.60
2024-02-13T10:13:47.158Z,3.60
2024-02-13T10:18:58.961Z,3.42
2024-02-13T10:24:10.183Z,3.60
2024-02-13T10:29:13.504Z,3.03
2024-02-13T10:34:15.295Z,2.75
2024-02-13T10:39:20.563Z,2.55
2024-02-13T10:44:24.388Z,2.42
2024-02-13T10:49:40.794Z,2.65
2024-02-13T10:54:48.175Z,2.22
2024-02-13T10:59:50.409Z,2.22
2024-02-13T11:04:52.731Z,2.10
2024-02-13T11:09:54.967Z,1.95
2024-02-13T11:15:16.653Z,2.35
2024-02-13T11:20:23.330Z,2.28
2024-02-13T11:25:28.545Z,3.08
2024-02-13T11:30:30.444Z,2.40
2024-02-13T11:35:43.076Z,2.83
2024-02-13T11:40:45.419Z,2.20
2024-02-13T11:45:47.485Z,3.10
2024-02-13T11:50:49.277Z,3.10
2024-02-13T11:55:56.070Z,2.95
2024-02-13T12:01:07.268Z,3.08
2024-02-13T12:06:10.737Z,2.90
2024-02-13T12:11:13.044Z,4.72
2024-02-13T12:16:15.699Z,3.03
2024-02-13T12:21:17.655Z,3.28
2024-02-13T12:26:19.344Z,3.15
2024-02-13T12:31:23.020Z,3.38
2024-02-13T12:36:25.594Z,3.67
2024-02-13T12:41:27.305Z,3.05
2024-02-13T12:46:35.945Z,3.20
2024-02-13T12:51:40.467Z,3.35
2024-02-13T12:56:42.393Z,3.05
2024-02-13T13:01:47.814Z,3.13
2024-02-13T13:06:51.934Z,3.00
2024-02-13T13:11:53.794Z,3.10
2024-02-13T13:16:56.595Z,3.00
2024-02-13T13:21:59.190Z,3.30
2024-02-13T13:27:02.002Z,2.97
2024-02-13T13:32:06.585Z,3.10
2024-02-13T13:37:08.650Z,2.88
2024-02-13T13:42:10.892Z,3.10
2024-02-13T13:47:12.842Z,2.80
2024-02-13T13:52:14.497Z,3.22
2024-02-13T13:57:16.470Z,2.45
2024-02-13T14:02:18.113Z,2.50
2024-02-13T14:07:21.047Z,2.30
2024-02-13T14:12:23.000Z,2.47
2024-02-13T14:17:24.869Z,2.50
2024-02-13T14:22:28.035Z,2.38
2024-02-13T14:27:29.764Z,2.40
2024-02-13T14:32:31.500Z,2.90
2024-02-13T14:37:33.161Z,2.35
2024-02-13T14:42:34.916Z,2.10
2024-02-13T14:47:40.174Z,2.00
2024-02-13T14:52:42.920Z,2.05
2024-02-13T14:57:52.315Z,2.70
2024-02-13T15:03:02.344Z,2.17
2024-02-13T15:08:04.697Z,2.20
2024-02-13T15:13:07.954Z,2.10
2024-02-13T15:18:09.685Z,2.65
2024-02-13T15:23:13.827Z,2.10
2024-02-13T15:28:16.943Z,2.00
2024-02-13T15:33:21.881Z,1.90
2024-02-13T15:38:44.252Z,2.20
2024-02-13T15:44:04.711Z,2.15
2024-02-13T15:49:06.564Z,2.17
2024-02-13T15:54:09.954Z,2.60
2024-02-13T15:59:11.766Z,2.55
2024-02-13T16:04:13.611Z,2.00
2024-02-13T16:09:15.456Z,2.42
2024-02-13T16:14:18.502Z,2.42
2024-02-13T16:19:20.290Z,2.00
2024-02-13T16:24:22.052Z,2.60
2024-02-13T16:29:24.594Z,2.00
2024-02-13T16:34:26.763Z,2.03
2024-02-13T16:39:28.458Z,2.10
2024-02-13T16:44:30.153Z,2.55
2024-02-13T16:49:31.907Z,2.25
2024-02-13T16:54:33.811Z,2.80
2024-02-13T16:59:35.524Z,2.80
2024-02-13T17:04:37.178Z,2.60
2024-02-13T17:09:38.843Z,2.33
2024-02-13T17:14:41.723Z,2.72
2024-02-13T17:19:43.867Z,2.70
2024-02-13T17:24:47.597Z,3.20
2024-02-13T17:29:49.273Z,4.88
2024-02-13T17:34:51.078Z,4.13
2024-02-13T17:39:52.829Z,3.72
2024-02-13T17:44:54.487Z,3.60
2024-02-13T17:49:56.182Z,3.55
2024-02-13T17:54:57.800Z,3.45
2024-02-13T17:59:59.480Z,3.90
2024-02-13T18:05:01.338Z,4.03
2024-02-13T18:10:04.152Z,3.67
2024-02-13T18:15:07.250Z,3.60
2024-02-13T18:20:15.528Z,3.80
2024-02-13T18:25:17.936Z,3.75
2024-02-13T18:30:19.635Z,3.92
2024-02-13T18:35:21.468Z,3.63
2024-02-13T18:40:23.712Z,3.97
2024-02-13T18:45:25.483Z,3.83
2024-02-13T18:50:28.765Z,3.83
2024-02-13T18:55:30.429Z,3.97
2024-02-13T19:00:32.137Z,3.83
2024-02-13T19:05:34.011Z,4.20
2024-02-13T19:10:37.985Z,4.07
2024-02-13T19:15:40.060Z,4.05
2024-02-13T19:20:41.783Z,3.78
2024-02-13T19:25:43.607Z,3.90
2024-02-13T19:30:47.858Z,3.50
2024-02-13T19:35:52.378Z,3.60
2024-02-13T19:40:54.029Z,3.38
2024-02-13T19:45:56.818Z,3.67
2024-02-13T19:50:58.570Z,3.35
2024-02-13T19:56:00.388Z,3.60
2024-02-13T20:01:02.104Z,4.68
2024-02-13T20:06:04.008Z,4.47
2024-02-13T20:11:05.774Z,3.55
2024-02-13T20:16:07.700Z,4.00
2024-02-13T20:21:09.365Z,3.88
2024-02-13T20:26:11.170Z,4.57
2024-02-13T20:31:12.994Z,5.15
2024-02-13T20:36:14.661Z,5.07
2024-02-13T20:41:18.942Z,4.53
2024-02-13T20:46:20.687Z,5.18
2024-02-13T20:51:22.334Z,5.18
2024-02-13T20:56:23.965Z,5.35
2024-02-13T21:01:28.368Z,5.65
2024-02-13T21:06:30.433Z,5.75
2024-02-13T21:11:35.666Z,5.30
2024-02-13T21:16:37.363Z,5.75
2024-02-13T21:22:01.100Z,4.97
2024-02-13T21:27:03.205Z,5.32
2024-02-13T21:32:05.926Z,4.95
2024-02-13T21:37:07.624Z,4.95
2024-02-13T21:42:11.026Z,4.30
2024-02-13T21:47:12.687Z,4.07
2024-02-13T21:52:14.337Z,4.60
2024-02-13T21:57:16.024Z,4.45
2024-02-13T22:02:17.744Z,4.28
2024-02-13T22:07:19.438Z,4.75
2024-02-13T22:12:21.149Z,4.40
2024-02-13T22:17:23.008Z,4.72
2024-02-13T22:22:24.760Z,4.57
2024-02-13T22:27:29.211Z,4.60
2024-02-13T22:32:32.870Z,4.90
2024-02-13T22:37:35.426Z,5.10
2024-02-13T22:42:37.076Z,4.97
2024-02-13T22:47:39.114Z,4.95
2024-02-13T22:52:40.923Z,4.97
2024-02-13T22:57:42.762Z,4.47
2024-02-13T23:02:45.371Z,4.38
2024-02-13T23:07:47.198Z,4.90
2024-02-13T23:12:48.784Z,4.50
2024-02-13T23:17:50.630Z,4.25
2024-02-13T23:22:52.340Z,4.60
2024-02-13T23:27:54.051Z,3.97
2024-02-13T23:32:56.155Z,4.40
2024-02-13T23:37:57.841Z,4.10
2024-02-13T23:43:00.278Z,4.40
2024-02-13T23:48:02.133Z,4.25
2024-02-13T23:53:04.102Z,4.53
2024-02-13T23:58:05.777Z,4.68
